NCAR-RAP Real-Time Weather Data

Output produced by METARs form (23 February 2020  02:24 UTC)
found at http://weather.rap.ucar.edu/surface/
 
KPHX 230151Z 25007KT 10SM SCT048 BKN065 18/08 A2995 RMK AO2 SLP134 T01780083
KPHX 230051Z 25009KT 10SM FEW038 BKN046 BKN060 BKN250 18/10 A2994 RMK AO2 SLP128 T01830100
KPHX 222351Z VRB03KT 10SM SCT055 BKN080 BKN250 19/09 A2992 RMK AO2 SLP122 60010 T01940089 10206 20144 55000
KPHX 222251Z 24016KT 10SM FEW028 SCT055 SCT080 SCT200 21/09 A2991 RMK AO2 SLP116 CB DSNT NE-E T02060089
KPHX 222151Z 20008KT 10SM FEW021 SCT043 BKN055 BKN140 19/16 A2991 RMK AO2 RAE03 SLP117 P0001 T01940161
KPHX 222051Z 17006KT 3SM R07L/5000VP6000FT RA BR FEW008 BKN030 OVC048 17/16 A2992 RMK AO2 SLP122 P0005 60009 T01670156 58022
KPHX 222047Z 18003KT 2 1/2SM R07L/5000VP6000FT RA BR FEW008 BKN030 OVC048 17/16 A2992 RMK AO2 P0003
KPHX 221951Z 08009KT 7SM -RA SCT035 BKN048 OVC060 16/14 A2994 RMK AO2 RAE05B28 SLP129 P0000 T01560139
KPHX 221851Z 07010KT 10SM -RA FEW030 BKN055 OVC080 15/13 A2997 RMK AO2 SLP140 P0004 T01500133
KPHX 221751Z 09012KT 7SM -RA FEW020 BKN060 OVC090 14/13 A2999 RMK AO2 SLP145 P0022 60090 T01440133 10161 20133 58005
KPHX 221727Z 12010KT 3SM RA BR FEW020 BKN040 OVC060 14/13 A3000 RMK AO2 P0018 T01390133
KPHX 221714Z 12008KT 1 3/4SM R07L/3500VP6000FT RA BR FEW020 BKN038 OVC050 14/13 A3000 RMK AO2 VIS 3/4V4 P0005 T01390133
KPHX 221651Z 09007KT 9SM -RA FEW015 BKN033 OVC045 14/13 A3000 RMK AO2 SLP149 P0009 T01440128
KPHX 221622Z 04009KT 3SM -RA BR SCT022 BKN039 OVC048 14/13 A3001 RMK AO2 P0006 T01390128
KPHX 221613Z 06010KT 2 1/2SM +RA BR SCT024 BKN032 OVC050 14/13 A3000 RMK AO2 P0004 T01390128
KPHX 221551Z 06009KT 3SM RA BR SCT024 BKN036 OVC050 13/12 A3001 RMK AO2 SLP153 P0014 T01330122
KPHX 221537Z 07010KT 3SM RA BR FEW020 BKN030 OVC050 13/12 A3001 RMK AO2 P0012 T01330122
KPHX 221524Z 09007KT 2SM +RA BR FEW020 BKN030 OVC050 13/13 A3001 RMK AO2 P0006 T01330128
KPHX 221517Z 09010KT 3SM -RA BR FEW020 BKN027 BKN040 13/12 A3000 RMK AO2 P0006 T01330122
KPHX 221451Z 10010KT 2 1/2SM RA BR BKN027 BKN040 OVC095 13/12 A3000 RMK AO2 SLP151 P0016 60045 T01330122 58009
KPHX 221448Z 09008KT 2 1/2SM RA BR BKN027 BKN040 OVC095 13/12 A3000 RMK AO2 P0015
KPHX 221436Z 09013KT 6SM -RA BR SCT028 BKN045 OVC095 13/12 A3000 RMK AO2 P0013 T01330122
KPHX 221351Z 05008KT 3SM R07L/4500VP6000FT +RA BR SCT014 BKN027 OVC055 14/13 A3002 RMK AO2 SLP156 P0021 T01390128
KPHX 221251Z 09013KT 6SM RA BR FEW019 BKN044 OVC085 15/13 A3002 RMK AO2 SLP154 P0008 T01500133
KPHX 221151Z 10013KT 8SM -RA BKN070 BKN090 OVC110 16/12 A3003 RMK AO2 SLP158 P0003 60003 70003 T01610117 10194 20161 55001
KPHX 221051Z 11011KT 10SM -RA SCT065 BKN090 OVC120 17/09 A3002 RMK AO2 RAB18 SLP155 P0000 T01720094
KPHX 220951Z 11010KT 10SM SCT075 BKN100 BKN140 OVC170 19/05 A3002 RMK AO2 SLP154 T01890050
KPHX 220851Z 12007KT 10SM SCT075 BKN090 OVC110 19/05 A3003 RMK AO2 SLP157 T01940050 55008
KPHX 220751Z 10007KT 10SM SCT090 BKN120 OVC160 19/04 A3003 RMK AO2 SLP157 T01940044
KPHX 220651Z 11007KT 10SM SCT120 BKN160 OVC190 19/04 A3004 RMK AO2 SLP162 T01940044 402500167
KPHX 220551Z 08010KT 10SM SCT120 BKN170 BKN200 19/04 A3006 RMK AO2 SLP167 T01940044 10239 20194 51005
KPHX 220451Z 09010KT 10SM SCT120 BKN170 BKN200 21/04 A3006 RMK AO2 SLP167 T02060039
KPHX 220351Z 08009KT 10SM SCT100 BKN170 BKN200 21/04 A3006 RMK AO2 SLP167 T02110039
KPHX 220251Z 10006KT 10SM SCT150 BKN190 BKN230 21/04 A3004 RMK AO2 SLP162 T02110044 53012
KPHX 220151Z 12008KT 10SM SCT150 BKN200 BKN230 22/04 A3003 RMK AO2 SLP159 T02170039
KPHX 220051Z 12010KT 10SM SCT160 BKN210 BKN230 23/04 A3001 RMK AO2 SLP151 T02280039
KPHX 212351Z 13010KT 10SM SCT160 BKN210 BKN230 24/03 A3001 RMK AO2 SLP150 T02390033 10250 20217 55010
KPHX 212251Z 09012KT 10SM SCT170 BKN210 BKN230 24/03 A3001 RMK AO2 SLP149 T02440033
KPHX 212151Z 12009G16KT 10SM SCT170 BKN210 BKN250 24/03 A3002 RMK AO2 SLP153 T02440028
KPHX 212051Z 08012KT 10SM FEW150 SCT230 BKN250 24/03 A3004 RMK AO2 SLP160 T02390028 58029
KPHX 211951Z 06014G19KT 10SM FEW150 SCT230 BKN250 23/02 A3008 RMK AO2 SLP175 T02330022
KPHX 211851Z 09012KT 10SM FEW120 FEW150 BKN250 22/02 A3011 RMK AO2 SLP185 T02220022
KPHX 211751Z 06015KT 10SM FEW120 FEW150 BKN250 22/02 A3013 RMK AO2 SLP191 T02170022 10217 20172 50008
KPHX 211651Z 07015KT 10SM FEW120 BKN150 BKN250 21/02 A3014 RMK AO2 SLP194 T02060017
KPHX 211551Z 07012KT 10SM SCT120 BKN200 BKN250 18/02 A3013 RMK AO2 SLP191 T01830017
KPHX 211451Z 09009KT 10SM SCT130 BKN230 BKN250 18/02 A3010 RMK AO2 SLP183 T01780022 53018
KPHX 211351Z 09007KT 10SM FEW170 SCT230 BKN250 18/03 A3008 RMK AO2 SLP173 T01780028
KPHX 211251Z 07004KT 10SM FEW170 BKN200 OVC250 18/03 A3007 RMK AO2 SLP169 T01780028
KPHX 211151Z 11005KT 10SM FEW150 SCT170 BKN200 18/03 A3005 RMK AO2 SLP162 T01830028 10206 20167 55003
KPHX 211051Z 12003KT 10SM SCT180 BKN200 OVC250 17/04 A3004 RMK AO2 SLP159 T01720044
KPHX 210951Z 10003KT 10SM FEW160 BKN180 OVC200 18/03 A3006 RMK AO2 SLP165 T01780033
KPHX 210851Z 10005KT 10SM FEW160 BKN180 OVC200 18/03 A3006 RMK AO2 SLP166 T01830028 50000
KPHX 210751Z 08005KT 10SM FEW170 BKN190 BKN240 19/03 A3006 RMK AO2 SLP165 T01890028
KPHX 210651Z 00000KT 10SM SCT170 BKN200 OVC230 19/02 A3007 RMK AO2 SLP169 T01940022 402780106
KPHX 210551Z 00000KT 10SM BKN180 OVC220 20/02 A3006 RMK AO2 SLP167 T02000017 10256 20194 51005
KPHX 210451Z 22004KT 10SM BKN180 BKN230 19/02 A3005 RMK AO2 SLP165 T01940017
KPHX 210351Z 24004KT 10SM BKN190 BKN230 21/02 A3005 RMK AO2 SLP167 T02060017
KPHX 210251Z 24004KT 10SM SCT180 BKN230 22/M01 A3004 RMK AO2 SLP164 T02221006 53003